sensor_id;sensor_type;location;lat;lon;timestamp;temperature;humidity
64468;DHT22;50853;46.836;16.820;2022-10-14T00:01:14;10.80;91.00
64468;DHT22;50853;46.836;16.820;2022-10-14T00:03:41;10.80;91.40
64468;DHT22;50853;46.836;16.820;2022-10-14T00:06:10;10.70;91.20
64468;DHT22;50853;46.836;16.820;2022-10-14T00:08:37;10.70;90.70
64468;DHT22;50853;46.836;16.820;2022-10-14T00:11:08;10.70;91.50
64468;DHT22;50853;46.836;16.820;2022-10-14T00:13:34;10.60;92.00
64468;DHT22;50853;46.836;16.820;2022-10-14T00:16:02;10.50;92.10
64468;DHT22;50853;46.836;16.820;2022-10-14T00:18:28;10.50;92.20
64468;DHT22;50853;46.836;16.820;2022-10-14T00:20:59;10.50;92.00
64468;DHT22;50853;46.836;16.820;2022-10-14T00:23:26;10.50;91.80
64468;DHT22;50853;46.836;16.820;2022-10-14T00:25:53;10.50;92.10
64468;DHT22;50853;46.836;16.820;2022-10-14T00:28:19;10.50;91.60
64468;DHT22;50853;46.836;16.820;2022-10-14T00:30:59;10.50;91.60
64468;DHT22;50853;46.836;16.820;2022-10-14T00:33:25;10.50;91.50
64468;DHT22;50853;46.836;16.820;2022-10-14T00:36:06;10.40;91.40
64468;DHT22;50853;46.836;16.820;2022-10-14T00:38:33;10.40;92.40
64468;DHT22;50853;46.836;16.820;2022-10-14T00:40:59;10.50;94.10
64468;DHT22;50853;46.836;16.820;2022-10-14T00:43:27;10.40;93.80
64468;DHT22;50853;46.836;16.820;2022-10-14T00:45:53;10.40;93.70
64468;DHT22;50853;46.836;16.820;2022-10-14T00:48:23;10.40;94.20
64468;DHT22;50853;46.836;16.820;2022-10-14T00:50:53;10.40;93.50
64468;DHT22;50853;46.836;16.820;2022-10-14T00:53:20;10.40;93.30
64468;DHT22;50853;46.836;16.820;2022-10-14T00:55:47;10.40;92.80
64468;DHT22;50853;46.836;16.820;2022-10-14T00:58:13;10.30;92.20
64468;DHT22;50853;46.836;16.820;2022-10-14T01:00:40;10.30;92.00
64468;DHT22;50853;46.836;16.820;2022-10-14T01:03:16;10.30;92.20
64468;DHT22;50853;46.836;16.820;2022-10-14T01:05:52;10.20;92.90
64468;DHT22;50853;46.836;16.820;2022-10-14T01:08:51;10.20;92.50
64468;DHT22;50853;46.836;16.820;2022-10-14T01:17:35;10.20;92.40
64468;DHT22;50853;46.836;16.820;2022-10-14T01:29:25;10.00;93.50
64468;DHT22;50853;46.836;16.820;2022-10-14T01:32:03;10.00;94.20
64468;DHT22;50853;46.836;16.820;2022-10-14T01:34:37;10.00;94.90
64468;DHT22;50853;46.836;16.820;2022-10-14T01:37:10;10.00;96.20
64468;DHT22;50853;46.836;16.820;2022-10-14T01:39:44;10.10;96.60
64468;DHT22;50853;46.836;16.820;2022-10-14T01:42:17;10.00;95.60
64468;DHT22;50853;46.836;16.820;2022-10-14T01:44:49;10.00;95.50
64468;DHT22;50853;46.836;16.820;2022-10-14T01:47:19;10.20;97.20
64468;DHT22;50853;46.836;16.820;2022-10-14T01:50:11;10.20;97.90
64468;DHT22;50853;46.836;16.820;2022-10-14T01:53:06;10.30;98.20
64468;DHT22;50853;46.836;16.820;2022-10-14T01:55:40;10.30;98.70
64468;DHT22;50853;46.836;16.820;2022-10-14T01:58:09;10.30;99.00
64468;DHT22;50853;46.836;16.820;2022-10-14T02:00:37;10.30;98.70
64468;DHT22;50853;46.836;16.820;2022-10-14T02:03:03;10.30;99.30
64468;DHT22;50853;46.836;16.820;2022-10-14T02:05:50;10.40;99.80
64468;DHT22;50853;46.836;16.820;2022-10-14T02:08:25;10.40;99.90
64468;DHT22;50853;46.836;16.820;2022-10-14T02:11:18;10.40;99.90
64468;DHT22;50853;46.836;16.820;2022-10-14T02:16:37;10.40;99.30
64468;DHT22;50853;46.836;16.820;2022-10-14T02:22:01;10.30;99.50
64468;DHT22;50853;46.836;16.820;2022-10-14T02:24:39;10.30;99.00
64468;DHT22;50853;46.836;16.820;2022-10-14T02:27:09;10.20;98.10
64468;DHT22;50853;46.836;16.820;2022-10-14T02:29:36;10.10;97.00
64468;DHT22;50853;46.836;16.820;2022-10-14T02:32:04;10.10;96.30
64468;DHT22;50853;46.836;16.820;2022-10-14T02:34:31;10.00;95.60
64468;DHT22;50853;46.836;16.820;2022-10-14T02:36:59;10.00;95.00
64468;DHT22;50853;46.836;16.820;2022-10-14T02:39:31;9.90;94.50
64468;DHT22;50853;46.836;16.820;2022-10-14T02:41:59;9.80;94.30
64468;DHT22;50853;46.836;16.820;2022-10-14T02:44:25;9.80;94.00
64468;DHT22;50853;46.836;16.820;2022-10-14T02:46:54;9.70;93.50
64468;DHT22;50853;46.836;16.820;2022-10-14T02:49:20;9.70;93.70
64468;DHT22;50853;46.836;16.820;2022-10-14T02:51:47;9.80;96.10
64468;DHT22;50853;46.836;16.820;2022-10-14T02:54:12;9.90;97.90
64468;DHT22;50853;46.836;16.820;2022-10-14T02:56:38;10.00;99.00
64468;DHT22;50853;46.836;16.820;2022-10-14T02:59:04;10.10;99.60
64468;DHT22;50853;46.836;16.820;2022-10-14T03:01:30;10.10;99.90
64468;DHT22;50853;46.836;16.820;2022-10-14T03:03:57;10.10;99.90
64468;DHT22;50853;46.836;16.820;2022-10-14T03:06:23;10.10;99.90
64468;DHT22;50853;46.836;16.820;2022-10-14T03:08:49;10.20;99.90
64468;DHT22;50853;46.836;16.820;2022-10-14T03:11:15;10.20;99.90
64468;DHT22;50853;46.836;16.820;2022-10-14T03:13:41;10.30;99.90
64468;DHT22;50853;46.836;16.820;2022-10-14T03:16:06;10.30;99.90
64468;DHT22;50853;46.836;16.820;2022-10-14T03:18:33;10.40;99.90
64468;DHT22;50853;46.836;16.820;2022-10-14T03:20:59;10.40;99.90
64468;DHT22;50853;46.836;16.820;2022-10-14T03:23:25;10.50;99.90
64468;DHT22;50853;46.836;16.820;2022-10-14T03:25:50;10.50;99.90
64468;DHT22;50853;46.836;16.820;2022-10-14T03:28:16;10.50;99.90
64468;DHT22;50853;46.836;16.820;2022-10-14T03:30:42;10.50;99.90
64468;DHT22;50853;46.836;16.820;2022-10-14T03:33:08;10.50;99.90
64468;DHT22;50853;46.836;16.820;2022-10-14T03:35:34;10.50;99.90
64468;DHT22;50853;46.836;16.820;2022-10-14T03:38:00;10.60;99.90
64468;DHT22;50853;46.836;16.820;2022-10-14T03:40:28;10.60;99.90
64468;DHT22;50853;46.836;16.820;2022-10-14T03:42:57;10.60;99.90
64468;DHT22;50853;46.836;16.820;2022-10-14T03:45:24;10.70;99.90
64468;DHT22;50853;46.836;16.820;2022-10-14T03:47:50;10.70;99.90
64468;DHT22;50853;46.836;16.820;2022-10-14T03:50:16;10.70;99.90
64468;DHT22;50853;46.836;16.820;2022-10-14T03:52:42;10.70;99.90
64468;DHT22;50853;46.836;16.820;2022-10-14T03:55:08;10.70;99.90
64468;DHT22;50853;46.836;16.820;2022-10-14T03:57:34;10.70;99.90
64468;DHT22;50853;46.836;16.820;2022-10-14T04:00:00;10.70;99.90
64468;DHT22;50853;46.836;16.820;2022-10-14T04:02:26;10.70;99.90
64468;DHT22;50853;46.836;16.820;2022-10-14T04:04:52;10.60;99.90
64468;DHT22;50853;46.836;16.820;2022-10-14T04:07:17;10.70;99.90
64468;DHT22;50853;46.836;16.820;2022-10-14T04:09:43;10.60;99.90
64468;DHT22;50853;46.836;16.820;2022-10-14T04:12:09;10.60;99.90
64468;DHT22;50853;46.836;16.820;2022-10-14T04:14:35;10.50;99.90
64468;DHT22;50853;46.836;16.820;2022-10-14T04:17:01;10.50;99.90
64468;DHT22;50853;46.836;16.820;2022-10-14T04:19:26;10.50;99.90
64468;DHT22;50853;46.836;16.820;2022-10-14T04:21:52;10.50;99.90
64468;DHT22;50853;46.836;16.820;2022-10-14T04:24:18;10.50;99.90
64468;DHT22;50853;46.836;16.820;2022-10-14T04:26:44;10.40;99.90
64468;DHT22;50853;46.836;16.820;2022-10-14T04:29:10;10.40;99.90
64468;DHT22;50853;46.836;16.820;2022-10-14T04:31:36;10.40;99.90
64468;DHT22;50853;46.836;16.820;2022-10-14T04:34:02;10.30;99.90
64468;DHT22;50853;46.836;16.820;2022-10-14T04:36:28;10.30;99.90
64468;DHT22;50853;46.836;16.820;2022-10-14T04:38:53;10.30;99.90
64468;DHT22;50853;46.836;16.820;2022-10-14T04:41:19;10.40;99.90
64468;DHT22;50853;46.836;16.820;2022-10-14T04:43:45;10.40;99.90
64468;DHT22;50853;46.836;16.820;2022-10-14T04:46:11;10.40;99.90
64468;DHT22;50853;46.836;16.820;2022-10-14T04:48:37;10.40;99.90
64468;DHT22;50853;46.836;16.820;2022-10-14T04:51:03;10.40;99.90
64468;DHT22;50853;46.836;16.820;2022-10-14T04:53:29;10.30;99.90
64468;DHT22;50853;46.836;16.820;2022-10-14T04:55:55;10.30;99.90
64468;DHT22;50853;46.836;16.820;2022-10-14T04:58:20;10.30;99.90
64468;DHT22;50853;46.836;16.820;2022-10-14T05:00:46;10.20;99.90
64468;DHT22;50853;46.836;16.820;2022-10-14T05:03:12;10.20;99.90
64468;DHT22;50853;46.836;16.820;2022-10-14T05:05:38;10.20;99.90
64468;DHT22;50853;46.836;16.820;2022-10-14T05:08:04;10.10;99.90
64468;DHT22;50853;46.836;16.820;2022-10-14T05:10:30;10.00;99.90
64468;DHT22;50853;46.836;16.820;2022-10-14T05:12:56;10.00;99.90
64468;DHT22;50853;46.836;16.820;2022-10-14T05:15:22;10.10;99.90
64468;DHT22;50853;46.836;16.820;2022-10-14T05:17:48;10.10;99.90
64468;DHT22;50853;46.836;16.820;2022-10-14T05:20:14;10.20;99.90
64468;DHT22;50853;46.836;16.820;2022-10-14T05:22:40;10.20;99.90
64468;DHT22;50853;46.836;16.820;2022-10-14T05:25:08;10.30;99.90
64468;DHT22;50853;46.836;16.820;2022-10-14T05:27:34;10.30;99.90
64468;DHT22;50853;46.836;16.820;2022-10-14T05:29:59;10.30;99.90
64468;DHT22;50853;46.836;16.820;2022-10-14T05:32:25;10.30;99.90
64468;DHT22;50853;46.836;16.820;2022-10-14T05:34:52;10.30;99.90
64468;DHT22;50853;46.836;16.820;2022-10-14T05:37:17;10.30;99.90
64468;DHT22;50853;46.836;16.820;2022-10-14T05:39:43;10.40;99.90
64468;DHT22;50853;46.836;16.820;2022-10-14T05:42:09;10.40;99.90
64468;DHT22;50853;46.836;16.820;2022-10-14T05:44:35;10.40;99.90
64468;DHT22;50853;46.836;16.820;2022-10-14T05:47:01;10.40;99.90
64468;DHT22;50853;46.836;16.820;2022-10-14T05:49:26;10.40;99.90
64468;DHT22;50853;46.836;16.820;2022-10-14T05:51:52;10.40;99.90
64468;DHT22;50853;46.836;16.820;2022-10-14T05:54:18;10.50;99.90
64468;DHT22;50853;46.836;16.820;2022-10-14T05:56:44;10.50;99.90
64468;DHT22;50853;46.836;16.820;2022-10-14T05:59:10;10.70;99.90
64468;DHT22;50853;46.836;16.820;2022-10-14T06:01:36;10.70;99.90
64468;DHT22;50853;46.836;16.820;2022-10-14T06:04:03;10.80;99.90
64468;DHT22;50853;46.836;16.820;2022-10-14T06:06:29;10.90;99.90
64468;DHT22;50853;46.836;16.820;2022-10-14T06:08:55;11.00;99.90
64468;DHT22;50853;46.836;16.820;2022-10-14T06:11:21;11.10;99.90
64468;DHT22;50853;46.836;16.820;2022-10-14T06:13:47;11.20;99.90
64468;DHT22;50853;46.836;16.820;2022-10-14T06:16:15;11.20;99.90
64468;DHT22;50853;46.836;16.820;2022-10-14T06:18:40;11.20;99.90
64468;DHT22;50853;46.836;16.820;2022-10-14T06:21:06;11.30;99.90
64468;DHT22;50853;46.836;16.820;2022-10-14T06:23:32;11.40;99.90
64468;DHT22;50853;46.836;16.820;2022-10-14T06:25:58;11.50;99.90
64468;DHT22;50853;46.836;16.820;2022-10-14T06:28:27;11.60;99.90
64468;DHT22;50853;46.836;16.820;2022-10-14T06:30:54;11.70;99.90
64468;DHT22;50853;46.836;16.820;2022-10-14T06:33:20;11.80;99.60
64468;DHT22;50853;46.836;16.820;2022-10-14T06:35:47;11.90;99.60
64468;DHT22;50853;46.836;16.820;2022-10-14T06:38:13;12.00;99.00
64468;DHT22;50853;46.836;16.820;2022-10-14T06:40:40;12.10;99.40
64468;DHT22;50853;46.836;16.820;2022-10-14T06:43:06;12.20;98.60
64468;DHT22;50853;46.836;16.820;2022-10-14T06:45:32;12.30;98.20
64468;DHT22;50853;46.836;16.820;2022-10-14T06:47:57;12.40;97.70
64468;DHT22;50853;46.836;16.820;2022-10-14T06:50:23;12.40;97.10
64468;DHT22;50853;46.836;16.820;2022-10-14T06:52:49;12.60;97.30
64468;DHT22;50853;46.836;16.820;2022-10-14T06:55:15;12.70;97.10
64468;DHT22;50853;46.836;16.820;2022-10-14T06:57:42;12.70;95.50
64468;DHT22;50853;46.836;16.820;2022-10-14T07:00:08;12.90;96.20
64468;DHT22;50853;46.836;16.820;2022-10-14T07:02:36;13.00;95.10
64468;DHT22;50853;46.836;16.820;2022-10-14T07:05:03;13.00;94.90
64468;DHT22;50853;46.836;16.820;2022-10-14T07:07:30;13.00;93.70
64468;DHT22;50853;46.836;16.820;2022-10-14T07:09:56;13.10;93.40
64468;DHT22;50853;46.836;16.820;2022-10-14T07:12:24;13.20;92.80
64468;DHT22;50853;46.836;16.820;2022-10-14T07:14:49;13.40;92.40
64468;DHT22;50853;46.836;16.820;2022-10-14T07:17:15;13.40;91.60
64468;DHT22;50853;46.836;16.820;2022-10-14T07:19:41;13.50;91.00
64468;DHT22;50853;46.836;16.820;2022-10-14T07:22:07;13.70;90.70
64468;DHT22;50853;46.836;16.820;2022-10-14T07:24:33;13.80;91.70
64468;DHT22;50853;46.836;16.820;2022-10-14T07:26:59;14.00;90.40
64468;DHT22;50853;46.836;16.820;2022-10-14T07:29:27;14.20;90.80
64468;DHT22;50853;46.836;16.820;2022-10-14T07:31:53;14.40;91.00
64468;DHT22;50853;46.836;16.820;2022-10-14T07:34:19;14.60;90.10
64468;DHT22;50853;46.836;16.820;2022-10-14T07:36:45;14.80;89.90
64468;DHT22;50853;46.836;16.820;2022-10-14T07:39:10;14.90;89.50
64468;DHT22;50853;46.836;16.820;2022-10-14T07:41:38;15.10;91.20
64468;DHT22;50853;46.836;16.820;2022-10-14T07:44:04;15.30;90.50
64468;DHT22;50853;46.836;16.820;2022-10-14T07:46:35;15.30;89.60
64468;DHT22;50853;46.836;16.820;2022-10-14T07:49:04;15.30;90.30
64468;DHT22;50853;46.836;16.820;2022-10-14T07:51:32;15.30;88.80
64468;DHT22;50853;46.836;16.820;2022-10-14T07:53:59;15.20;89.70
64468;DHT22;50853;46.836;16.820;2022-10-14T07:56:26;15.30;89.90
64468;DHT22;50853;46.836;16.820;2022-10-14T07:58:53;15.30;88.80
64468;DHT22;50853;46.836;16.820;2022-10-14T08:01:19;15.30;86.60
64468;DHT22;50853;46.836;16.820;2022-10-14T08:03:46;15.40;82.60
64468;DHT22;50853;46.836;16.820;2022-10-14T08:06:13;15.50;82.10
64468;DHT22;50853;46.836;16.820;2022-10-14T08:08:39;15.60;81.60
64468;DHT22;50853;46.836;16.820;2022-10-14T08:11:08;15.70;80.90
64468;DHT22;50853;46.836;16.820;2022-10-14T08:13:35;15.80;79.80
64468;DHT22;50853;46.836;16.820;2022-10-14T08:16:01;15.80;79.10
64468;DHT22;50853;46.836;16.820;2022-10-14T08:18:27;15.90;78.40
64468;DHT22;50853;46.836;16.820;2022-10-14T08:20:54;16.20;83.10
64468;DHT22;50853;46.836;16.820;2022-10-14T08:23:21;16.50;81.60
64468;DHT22;50853;46.836;16.820;2022-10-14T08:25:48;16.60;80.70
64468;DHT22;50853;46.836;16.820;2022-10-14T08:28:14;16.90;79.50
64468;DHT22;50853;46.836;16.820;2022-10-14T08:30:40;17.10;78.60
64468;DHT22;50853;46.836;16.820;2022-10-14T08:33:06;17.20;78.40
64468;DHT22;50853;46.836;16.820;2022-10-14T08:35:33;17.30;76.80
64468;DHT22;50853;46.836;16.820;2022-10-14T08:38:00;17.40;75.80
64468;DHT22;50853;46.836;16.820;2022-10-14T08:40:31;17.60;77.00
64468;DHT22;50853;46.836;16.820;2022-10-14T08:43:07;17.80;75.10
64468;DHT22;50853;46.836;16.820;2022-10-14T08:45:48;18.00;76.40
64468;DHT22;50853;46.836;16.820;2022-10-14T08:48:20;18.10;75.20
64468;DHT22;50853;46.836;16.820;2022-10-14T08:50:50;18.40;75.60
64468;DHT22;50853;46.836;16.820;2022-10-14T08:53:25;18.40;75.10
64468;DHT22;50853;46.836;16.820;2022-10-14T08:55:57;18.60;72.60
64468;DHT22;50853;46.836;16.820;2022-10-14T08:58:33;18.40;72.70
64468;DHT22;50853;46.836;16.820;2022-10-14T09:03:44;18.60;75.20
64468;DHT22;50853;46.836;16.820;2022-10-14T09:06:31;18.70;72.60
64468;DHT22;50853;46.836;16.820;2022-10-14T09:09:46;18.90;72.10
64468;DHT22;50853;46.836;16.820;2022-10-14T09:12:01;19.10;71.40
64468;DHT22;50853;46.836;16.820;2022-10-14T09:14:33;18.90;69.40
64468;DHT22;50853;46.836;16.820;2022-10-14T09:20:02;19.10;72.70
64468;DHT22;50853;46.836;16.820;2022-10-14T09:22:29;19.50;71.90
64468;DHT22;50853;46.836;16.820;2022-10-14T09:24:57;19.80;71.70
64468;DHT22;50853;46.836;16.820;2022-10-14T09:27:23;20.00;71.20
64468;DHT22;50853;46.836;16.820;2022-10-14T09:30:00;20.20;71.20
64468;DHT22;50853;46.836;16.820;2022-10-14T09:32:38;20.20;70.30
64468;DHT22;50853;46.836;16.820;2022-10-14T09:35:13;20.10;71.30
64468;DHT22;50853;46.836;16.820;2022-10-14T09:37:41;20.00;68.60
64468;DHT22;50853;46.836;16.820;2022-10-14T09:40:26;20.30;69.50
64468;DHT22;50853;46.836;16.820;2022-10-14T09:46:00;20.30;67.60
64468;DHT22;50853;46.836;16.820;2022-10-14T09:51:26;20.80;68.90
64468;DHT22;50853;46.836;16.820;2022-10-14T09:53:55;21.10;68.70
64468;DHT22;50853;46.836;16.820;2022-10-14T09:56:30;21.40;68.50
64468;DHT22;50853;46.836;16.820;2022-10-14T09:58:57;21.50;66.80
64468;DHT22;50853;46.836;16.820;2022-10-14T10:01:25;21.30;66.60
64468;DHT22;50853;46.836;16.820;2022-10-14T10:03:53;21.30;67.80
64468;DHT22;50853;46.836;16.820;2022-10-14T10:06:22;21.40;65.60
64468;DHT22;50853;46.836;16.820;2022-10-14T10:11:34;21.00;67.70
64468;DHT22;50853;46.836;16.820;2022-10-14T10:14:29;21.60;66.80
64468;DHT22;50853;46.836;16.820;2022-10-14T10:27:33;21.70;66.30
64468;DHT22;50853;46.836;16.820;2022-10-14T10:30:29;21.90;65.50
64468;DHT22;50853;46.836;16.820;2022-10-14T10:33:32;22.00;66.50
64468;DHT22;50853;46.836;16.820;2022-10-14T10:38:52;21.90;65.00
64468;DHT22;50853;46.836;16.820;2022-10-14T10:44:17;22.00;65.30
64468;DHT22;50853;46.836;16.820;2022-10-14T10:52:33;22.20;65.10
64468;DHT22;50853;46.836;16.820;2022-10-14T11:01:01;22.30;63.60
64468;DHT22;50853;46.836;16.820;2022-10-14T11:11:31;22.70;63.40
64468;DHT22;50853;46.836;16.820;2022-10-14T11:20:16;22.90;64.00
64468;DHT22;50853;46.836;16.820;2022-10-14T11:28:33;22.90;63.20
64468;DHT22;50853;46.836;16.820;2022-10-14T11:31:12;22.90;62.40
64468;DHT22;50853;46.836;16.820;2022-10-14T11:44:45;23.30;61.80
64468;DHT22;50853;46.836;16.820;2022-10-14T11:47:24;23.10;61.40
64468;DHT22;50853;46.836;16.820;2022-10-14T11:52:20;22.60;61.10
64468;DHT22;50853;46.836;16.820;2022-10-14T11:57:47;22.50;62.20
64468;DHT22;50853;46.836;16.820;2022-10-14T12:00:19;22.70;61.40
64468;DHT22;50853;46.836;16.820;2022-10-14T12:11:44;22.40;62.10
64468;DHT22;50853;46.836;16.820;2022-10-14T12:16:57;22.10;60.70
64468;DHT22;50853;46.836;16.820;2022-10-14T12:19:26;22.00;60.90
64468;DHT22;50853;46.836;16.820;2022-10-14T12:22:01;22.00;60.20
64468;DHT22;50853;46.836;16.820;2022-10-14T12:24:37;22.20;61.60
64468;DHT22;50853;46.836;16.820;2022-10-14T12:27:07;22.50;61.40
64468;DHT22;50853;46.836;16.820;2022-10-14T12:29:40;22.30;59.80
64468;DHT22;50853;46.836;16.820;2022-10-14T12:34:47;22.00;60.30
64468;DHT22;50853;46.836;16.820;2022-10-14T12:37:39;22.10;60.70
64468;DHT22;50853;46.836;16.820;2022-10-14T12:43:10;21.90;60.00
64468;DHT22;50853;46.836;16.820;2022-10-14T12:46:31;22.10;60.60
64468;DHT22;50853;46.836;16.820;2022-10-14T12:48:33;21.90;60.60
64468;DHT22;50853;46.836;16.820;2022-10-14T12:51:10;21.50;61.80
64468;DHT22;50853;46.836;16.820;2022-10-14T12:53:38;21.70;62.00
64468;DHT22;50853;46.836;16.820;2022-10-14T12:56:06;21.50;61.50
64468;DHT22;50853;46.836;16.820;2022-10-14T12:58:36;21.50;61.10
64468;DHT22;50853;46.836;16.820;2022-10-14T13:01:20;21.70;60.80
64468;DHT22;50853;46.836;16.820;2022-10-14T13:03:56;21.50;60.10
64468;DHT22;50853;46.836;16.820;2022-10-14T13:06:41;21.00;59.60
64468;DHT22;50853;46.836;16.820;2022-10-14T13:14:31;21.40;60.40
64468;DHT22;50853;46.836;16.820;2022-10-14T13:17:10;21.00;60.40
64468;DHT22;50853;46.836;16.820;2022-10-14T13:19:48;21.30;61.10
64468;DHT22;50853;46.836;16.820;2022-10-14T13:25:09;21.50;61.90
64468;DHT22;50853;46.836;16.820;2022-10-14T13:27:41;21.50;60.40
64468;DHT22;50853;46.836;16.820;2022-10-14T13:30:16;21.30;60.80
64468;DHT22;50853;46.836;16.820;2022-10-14T13:32:48;21.50;61.20
64468;DHT22;50853;46.836;16.820;2022-10-14T13:38:20;21.30;61.60
64468;DHT22;50853;46.836;16.820;2022-10-14T13:40:53;21.00;61.30
64468;DHT22;50853;46.836;16.820;2022-10-14T13:43:40;21.00;61.30
64468;DHT22;50853;46.836;16.820;2022-10-14T13:46:15;21.10;61.00
64468;DHT22;50853;46.836;16.820;2022-10-14T13:48:47;21.20;61.80
64468;DHT22;50853;46.836;16.820;2022-10-14T13:54:21;20.90;61.60
64468;DHT22;50853;46.836;16.820;2022-10-14T13:56:56;20.70;61.30
64468;DHT22;50853;46.836;16.820;2022-10-14T13:59:28;20.80;62.30
64468;DHT22;50853;46.836;16.820;2022-10-14T14:02:00;20.80;61.60
64468;DHT22;50853;46.836;16.820;2022-10-14T14:04:33;20.70;61.20
64468;DHT22;50853;46.836;16.820;2022-10-14T14:07:01;20.70;61.60
64468;DHT22;50853;46.836;16.820;2022-10-14T14:09:30;20.80;61.80
64468;DHT22;50853;46.836;16.820;2022-10-14T14:12:00;20.50;61.20
64468;DHT22;50853;46.836;16.820;2022-10-14T14:14:37;20.50;62.10
64468;DHT22;50853;46.836;16.820;2022-10-14T14:17:11;20.60;62.70
64468;DHT22;50853;46.836;16.820;2022-10-14T14:19:43;20.60;62.90
64468;DHT22;50853;46.836;16.820;2022-10-14T14:25:08;20.60;63.90
64468;DHT22;50853;46.836;16.820;2022-10-14T14:27:34;20.60;63.60
64468;DHT22;50853;46.836;16.820;2022-10-14T14:30:00;20.60;63.30
64468;DHT22;50853;46.836;16.820;2022-10-14T14:32:31;20.50;63.50
64468;DHT22;50853;46.836;16.820;2022-10-14T14:34:57;20.30;63.20
64468;DHT22;50853;46.836;16.820;2022-10-14T14:37:28;20.40;63.50
64468;DHT22;50853;46.836;16.820;2022-10-14T14:40:03;20.40;64.00
64468;DHT22;50853;46.836;16.820;2022-10-14T14:42:37;20.40;63.90
64468;DHT22;50853;46.836;16.820;2022-10-14T14:45:25;20.40;63.70
64468;DHT22;50853;46.836;16.820;2022-10-14T14:47:57;20.40;63.70
64468;DHT22;50853;46.836;16.820;2022-10-14T14:50:37;20.40;65.10
64468;DHT22;50853;46.836;16.820;2022-10-14T14:53:19;20.20;66.00
64468;DHT22;50853;46.836;16.820;2022-10-14T14:55:59;20.20;66.40
64468;DHT22;50853;46.836;16.820;2022-10-14T15:01:30;20.10;67.20
64468;DHT22;50853;46.836;16.820;2022-10-14T15:04:04;20.00;67.30
64468;DHT22;50853;46.836;16.820;2022-10-14T15:06:34;19.80;67.20
64468;DHT22;50853;46.836;16.820;2022-10-14T15:09:12;19.80;65.80
64468;DHT22;50853;46.836;16.820;2022-10-14T15:11:53;19.70;66.20
64468;DHT22;50853;46.836;16.820;2022-10-14T15:14:53;19.70;65.60
64468;DHT22;50853;46.836;16.820;2022-10-14T15:17:42;19.60;65.60
64468;DHT22;50853;46.836;16.820;2022-10-14T15:22:39;19.50;64.50
64468;DHT22;50853;46.836;16.820;2022-10-14T15:25:07;19.30;64.50
64468;DHT22;50853;46.836;16.820;2022-10-14T15:32:54;19.10;65.10
64468;DHT22;50853;46.836;16.820;2022-10-14T15:35:22;19.10;64.70
64468;DHT22;50853;46.836;16.820;2022-10-14T15:37:51;18.90;65.30
64468;DHT22;50853;46.836;16.820;2022-10-14T15:40:21;18.80;65.30
64468;DHT22;50853;46.836;16.820;2022-10-14T15:42:48;18.80;64.80
64468;DHT22;50853;46.836;16.820;2022-10-14T15:45:15;18.80;65.60
64468;DHT22;50853;46.836;16.820;2022-10-14T15:47:41;18.60;65.50
64468;DHT22;50853;46.836;16.820;2022-10-14T15:50:16;18.50;65.90
64468;DHT22;50853;46.836;16.820;2022-10-14T15:52:42;18.30;66.10
64468;DHT22;50853;46.836;16.820;2022-10-14T15:55:19;18.30;66.20
64468;DHT22;50853;46.836;16.820;2022-10-14T15:57:46;18.10;66.30
64468;DHT22;50853;46.836;16.820;2022-10-14T16:00:19;18.00;66.70
64468;DHT22;50853;46.836;16.820;2022-10-14T16:02:47;17.90;66.90
64468;DHT22;50853;46.836;16.820;2022-10-14T16:05:14;17.90;67.10
64468;DHT22;50853;46.836;16.820;2022-10-14T16:07:40;17.90;67.30
64468;DHT22;50853;46.836;16.820;2022-10-14T16:10:09;17.80;67.50
64468;DHT22;50853;46.836;16.820;2022-10-14T16:12:35;17.70;67.90
64468;DHT22;50853;46.836;16.820;2022-10-14T16:15:02;17.70;68.00
64468;DHT22;50853;46.836;16.820;2022-10-14T16:17:28;17.60;68.80
64468;DHT22;50853;46.836;16.820;2022-10-14T16:19:54;17.50;68.70
64468;DHT22;50853;46.836;16.820;2022-10-14T16:22:20;17.40;69.60
64468;DHT22;50853;46.836;16.820;2022-10-14T16:24:46;17.30;69.60
64468;DHT22;50853;46.836;16.820;2022-10-14T16:27:12;17.40;68.60
64468;DHT22;50853;46.836;16.820;2022-10-14T16:29:37;17.30;68.40
64468;DHT22;50853;46.836;16.820;2022-10-14T16:32:03;17.30;69.40
64468;DHT22;50853;46.836;16.820;2022-10-14T16:34:29;17.20;70.00
64468;DHT22;50853;46.836;16.820;2022-10-14T16:36:55;17.20;68.80
64468;DHT22;50853;46.836;16.820;2022-10-14T16:39:21;17.10;69.40
64468;DHT22;50853;46.836;16.820;2022-10-14T16:41:47;17.10;70.00
64468;DHT22;50853;46.836;16.820;2022-10-14T16:44:14;17.10;70.20
64468;DHT22;50853;46.836;16.820;2022-10-14T16:46:56;17.00;70.90
64468;DHT22;50853;46.836;16.820;2022-10-14T16:49:43;16.90;70.00
64468;DHT22;50853;46.836;16.820;2022-10-14T16:52:10;16.90;70.90
64468;DHT22;50853;46.836;16.820;2022-10-14T16:54:36;16.80;71.80
64468;DHT22;50853;46.836;16.820;2022-10-14T16:57:03;16.80;71.80
64468;DHT22;50853;46.836;16.820;2022-10-14T16:59:30;16.80;71.70
64468;DHT22;50853;46.836;16.820;2022-10-14T17:01:57;16.70;71.20
64468;DHT22;50853;46.836;16.820;2022-10-14T17:04:24;16.60;70.20
64468;DHT22;50853;46.836;16.820;2022-10-14T17:06:50;16.60;71.10
64468;DHT22;50853;46.836;16.820;2022-10-14T17:09:16;16.50;72.60
64468;DHT22;50853;46.836;16.820;2022-10-14T17:11:43;16.30;73.00
64468;DHT22;50853;46.836;16.820;2022-10-14T17:14:12;16.30;73.50
64468;DHT22;50853;46.836;16.820;2022-10-14T17:16:40;16.30;73.00
64468;DHT22;50853;46.836;16.820;2022-10-14T17:19:06;16.30;72.30
64468;DHT22;50853;46.836;16.820;2022-10-14T17:21:32;16.30;72.20
64468;DHT22;50853;46.836;16.820;2022-10-14T17:23:59;16.20;72.40
64468;DHT22;50853;46.836;16.820;2022-10-14T17:26:30;16.20;73.00
64468;DHT22;50853;46.836;16.820;2022-10-14T17:28:57;16.20;72.70
64468;DHT22;50853;46.836;16.820;2022-10-14T17:31:24;16.20;73.20
64468;DHT22;50853;46.836;16.820;2022-10-14T17:33:51;16.10;73.90
64468;DHT22;50853;46.836;16.820;2022-10-14T17:36:23;15.90;74.90
64468;DHT22;50853;46.836;16.820;2022-10-14T17:38:53;15.80;74.40
64468;DHT22;50853;46.836;16.820;2022-10-14T17:41:21;15.80;75.70
64468;DHT22;50853;46.836;16.820;2022-10-14T17:43:51;15.80;76.00
64468;DHT22;50853;46.836;16.820;2022-10-14T17:46:19;15.80;75.50
64468;DHT22;50853;46.836;16.820;2022-10-14T17:48:50;15.60;75.90
64468;DHT22;50853;46.836;16.820;2022-10-14T17:51:16;15.60;76.80
64468;DHT22;50853;46.836;16.820;2022-10-14T17:53:42;15.50;78.00
64468;DHT22;50853;46.836;16.820;2022-10-14T17:56:10;15.40;75.60
64468;DHT22;50853;46.836;16.820;2022-10-14T17:58:37;15.40;77.50